< < Back
Terminal Aerodrome Forecast


Current Version              Previous Versions:   1  2  3  4  5  6  7  8  9  

Terminal Aerodrome Forecast

695
FTUS42 KCAE 290500
TAFCAE
TAF
KCAE 290520Z 2906/3006 VRB03KT P6SM SKC
     FM291600 14006KT P6SM FEW050=



Latest METAR

753
SAUS80 KWBC 291400 RRA
MTRCAE
METAR KCAE 291356Z 00000KT 10SM FEW150 27/20 A3009 RMK AO2 SLP187
T02720200


USA.gov is the U.S. government's official web portal to all federal, state and local government web resources and services.